Time;durP1;ratioP1;P1;durP2;ratioP2;P2;SDS_P1;SDS_P2;PMS_P1;PMS_P2;Temp;Humidity;BMP_temperature;BMP_pressure;BME280_temperature;BME280_humidity;BME280_pressure;Samples;Min_cycle;Max_cycle;Signal;HPM_P1;HPM_P2
2023/08/12 00:01:06;;;;;;;7.87;3.77;;;;;;;14.08;70.30;100849.69;4194195;28;20233;-69
2023/08/12 00:03:32;;;;;;;13.30;3.90;;;;;;;14.09;70.32;100847.78;4192800;28;20251;-70
2023/08/12 00:06:01;;;;;;;8.77;4.00;;;;;;;14.19;70.34;100847.72;4198037;28;22451;-70
2023/08/12 00:08:29;;;;;;;7.03;3.50;;;;;;;14.04;70.49;100856.47;4190928;28;20481;-67
2023/08/12 00:10:55;;;;;;;10.43;4.03;;;;;;;14.06;70.42;100851.69;4194414;28;22953;-73
2023/08/12 00:13:22;;;;;;;11.40;4.60;;;;;;;14.02;70.27;100853.03;4195271;28;21910;-73
2023/08/12 00:15:48;;;;;;;11.07;3.93;;;;;;;14.02;70.37;100857.63;4179305;28;20284;-72
2023/08/12 00:18:15;;;;;;;9.77;4.50;;;;;;;14.01;70.35;100855.94;4184790;28;20514;-71
2023/08/12 00:20:42;;;;;;;11.83;4.67;;;;;;;13.91;70.87;100859.59;4190131;28;20245;-71
2023/08/12 00:23:08;;;;;;;10.83;4.30;;;;;;;13.89;70.93;100863.50;4198000;28;21437;-70
2023/08/12 00:25:35;;;;;;;15.73;4.90;;;;;;;13.84;71.56;100860.38;4190085;28;20283;-71
2023/08/12 00:28:02;;;;;;;12.60;4.63;;;;;;;13.84;71.46;100850.38;4202249;28;20242;-65
2023/08/12 00:30:29;;;;;;;9.30;4.00;;;;;;;13.91;71.10;100859.59;4197968;28;20254;-73
2023/08/12 00:32:55;;;;;;;11.33;3.80;;;;;;;13.91;71.01;100861.44;4175200;28;20245;-71
2023/08/12 00:35:22;;;;;;;9.00;4.47;;;;;;;14.05;69.82;100860.03;4191174;28;20724;-71
2023/08/12 00:37:48;;;;;;;10.33;4.43;;;;;;;14.03;69.55;100857.47;4184013;28;20306;-69
2023/08/12 00:40:15;;;;;;;9.90;4.00;;;;;;;13.93;69.79;100851.28;4200743;28;20232;-72
2023/08/12 00:42:42;;;;;;;12.47;4.57;;;;;;;13.95;69.88;100855.53;4203604;28;20233;-68
2023/08/12 00:45:14;;;;;;;9.27;3.93;;;;;;;13.84;70.35;100852.22;4196327;28;20237;-70
2023/08/12 00:47:41;;;;;;;6.13;3.20;;;;;;;13.76;70.78;100853.03;4194238;28;24137;-69
2023/08/12 00:50:09;;;;;;;12.03;4.80;;;;;;;13.69;70.87;100850.06;4193491;28;20255;-69
2023/08/12 00:52:35;;;;;;;11.63;4.57;;;;;;;13.60;71.27;100846.44;4204089;28;20231;-68
2023/08/12 00:55:02;;;;;;;11.03;5.07;;;;;;;13.65;70.82;100854.13;4200620;28;20244;-68
2023/08/12 00:57:29;;;;;;;9.97;4.13;;;;;;;13.68;70.67;100844.78;4210713;28;20237;-69
2023/08/12 00:59:56;;;;;;;12.03;4.63;;;;;;;13.63;70.91;100851.53;4192984;28;20637;-67
2023/08/12 01:02:22;;;;;;;10.47;4.63;;;;;;;13.58;70.99;100844.91;4209145;28;20424;-72
2023/08/12 01:04:49;;;;;;;11.67;4.80;;;;;;;13.50;71.68;100850.25;4196511;28;20236;-70
2023/08/12 01:07:16;;;;;;;9.77;4.80;;;;;;;13.51;71.24;100839.22;4198813;28;20600;-71
2023/08/12 01:09:43;;;;;;;10.63;4.87;;;;;;;13.47;71.71;100837.84;4212532;28;20294;-70
2023/08/12 01:12:16;;;;;;;10.20;5.17;;;;;;;13.52;71.49;100840.94;4198253;28;20236;-71
2023/08/12 01:15:04;;;;;;;10.33;5.20;;;;;;;13.44;71.86;100841.69;4195983;28;20312;-71
2023/08/12 01:17:31;;;;;;;11.57;4.80;;;;;;;13.40;72.33;100847.63;4181161;28;20438;-69
2023/08/12 01:19:58;;;;;;;12.53;4.83;;;;;;;13.36;72.69;100838.91;4188262;28;20300;-69
2023/08/12 01:22:25;;;;;;;16.50;5.00;;;;;;;13.36;72.71;100844.34;4196903;28;20233;-68
2023/08/12 01:24:52;;;;;;;15.60;5.37;;;;;;;13.30;72.81;100837.66;4182522;28;20589;-69
2023/08/12 01:27:20;;;;;;;13.03;4.73;;;;;;;13.34;72.51;100837.31;4193273;28;20526;-69
2023/08/12 01:29:50;;;;;;;10.40;5.60;;;;;;;13.26;72.88;100843.53;4201072;28;20458;-71
2023/08/12 01:32:31;;;;;;;13.93;5.30;;;;;;;13.28;73.34;100849.69;4194281;28;20236;-69
2023/08/12 01:35:03;;;;;;;11.23;5.20;;;;;;;13.20;73.86;100839.56;4178542;28;21427;-68
2023/08/12 01:37:30;;;;;;;10.87;5.07;;;;;;;13.22;73.75;100848.44;4178153;28;20890;-70
2023/08/12 01:40:00;;;;;;;13.87;5.30;;;;;;;13.23;73.62;100846.56;4179383;28;20249;-70
2023/08/12 01:42:27;;;;;;;15.00;5.37;;;;;;;13.20;73.68;100850.44;4198951;28;22730;-69
2023/08/12 01:44:54;;;;;;;15.97;5.67;;;;;;;13.16;73.35;100849.06;4191712;28;20249;-68
2023/08/12 01:47:21;;;;;;;18.23;6.37;;;;;;;13.13;73.50;100849.34;4197429;28;21162;-72
2023/08/12 01:49:47;;;;;;;12.67;5.90;;;;;;;13.04;73.55;100844.84;4194213;28;20233;-69
2023/08/12 01:52:14;;;;;;;14.53;5.90;;;;;;;13.08;73.48;100843.53;4191925;28;20683;-71
2023/08/12 01:54:40;;;;;;;12.43;5.43;;;;;;;13.02;73.76;100844.16;4198123;28;20742;-72
2023/08/12 01:57:08;;;;;;;12.23;5.13;;;;;;;12.98;73.81;100846.31;4199696;28;20247;-70
2023/08/12 01:59:35;;;;;;;10.90;5.47;;;;;;;12.95;74.00;100846.63;4208217;28;20533;-70
2023/08/12 02:02:02;;;;;;;22.27;5.63;;;;;;;12.87;75.56;100843.81;4196489;28;21484;-72
2023/08/12 02:04:29;;;;;;;13.93;5.87;;;;;;;12.82;75.48;100844.25;4189728;28;21230;-69
2023/08/12 02:06:56;;;;;;;11.97;5.20;;;;;;;12.86;75.00;100845.69;4186780;28;20241;-68
2023/08/12 02:09:22;;;;;;;12.63;5.10;;;;;;;12.83;75.09;100848.69;4199570;28;20609;-68
2023/08/12 02:11:49;;;;;;;8.83;4.60;;;;;;;12.84;75.17;100847.69;4189111;28;20326;-69
2023/08/12 02:14:16;;;;;;;11.40;5.20;;;;;;;12.79;75.86;100850.88;4186852;28;20256;-68
2023/08/12 02:16:42;;;;;;;13.20;5.23;;;;;;;12.74;76.03;100842.31;4196710;28;20241;-69
2023/08/12 02:19:09;;;;;;;15.13;5.20;;;;;;;12.70;76.45;100845.50;4199771;28;20233;-71
2023/08/12 02:21:35;;;;;;;14.03;5.50;;;;;;;12.66;76.42;100844.94;4200407;28;22953;-70
2023/08/12 02:24:02;;;;;;;13.43;5.27;;;;;;;12.62;76.92;100847.09;4191992;28;20545;-69
2023/08/12 02:26:30;;;;;;;12.33;5.37;;;;;;;12.57;77.31;100851.25;4192806;28;20649;-72
2023/08/12 02:28:56;;;;;;;10.80;4.43;;;;;;;12.58;77.11;100848.38;4202004;28;20232;-68
2023/08/12 02:31:23;;;;;;;10.73;5.10;;;;;;;12.58;77.18;100852.97;4192651;28;20244;-72
2023/08/12 02:33:50;;;;;;;11.43;5.33;;;;;;;12.60;77.08;100842.84;4188775;28;20612;-70
2023/08/12 02:36:16;;;;;;;11.43;5.50;;;;;;;12.58;77.27;100851.09;4199155;28;20942;-69
2023/08/12 02:38:43;;;;;;;10.83;5.50;;;;;;;12.55;77.61;100848.72;4198409;28;20241;-70
2023/08/12 02:41:09;;;;;;;10.17;5.03;;;;;;;12.50;77.60;100848.31;4186951;28;20339;-70
2023/08/12 02:43:36;;;;;;;13.33;5.27;;;;;;;12.50;77.77;100849.16;4196273;28;21763;-70
2023/08/12 02:46:02;;;;;;;12.27;5.13;;;;;;;12.54;77.62;100841.56;4192419;28;20305;-71
2023/08/12 02:48:29;;;;;;;12.13;5.80;;;;;;;12.43;78.29;100849.88;4196419;28;23236;-71
2023/08/12 02:50:56;;;;;;;13.33;6.07;;;;;;;12.36;78.41;100849.66;4192582;28;20252;-68
2023/08/12 02:53:22;;;;;;;20.77;5.57;;;;;;;12.37;78.28;100854.09;4188005;28;20553;-69
2023/08/12 02:55:49;;;;;;;12.73;5.83;;;;;;;12.42;78.36;100851.75;4194630;28;21743;-69
2023/08/12 02:58:15;;;;;;;12.00;5.40;;;;;;;12.38;78.15;100863.06;4194809;28;20241;-70
2023/08/12 03:00:45;;;;;;;13.13;5.77;;;;;;;12.34;78.43;100851.66;4198268;28;20244;-69
2023/08/12 03:03:11;;;;;;;13.70;5.70;;;;;;;12.34;78.43;100852.53;4193791;28;25849;-70
2023/08/12 03:05:38;;;;;;;14.57;6.03;;;;;;;12.32;78.54;100856.38;4195060;28;21263;-69
2023/08/12 03:08:05;;;;;;;11.00;5.27;;;;;;;12.29;78.61;100859.41;4195242;28;20284;-69
2023/08/12 03:10:33;;;;;;;12.50;5.70;;;;;;;12.25;78.75;100861.56;4187327;28;20296;-70
2023/08/12 03:13:00;;;;;;;17.43;5.73;;;;;;;12.20;78.75;100853.84;4190458;28;20307;-71
2023/08/12 03:15:27;;;;;;;12.20;6.00;;;;;;;12.15;79.20;100858.88;4195368;28;21495;-68
2023/08/12 03:17:53;;;;;;;11.40;5.80;;;;;;;12.13;79.20;100865.41;4206888;28;20322;-68
2023/08/12 03:20:20;;;;;;;13.63;5.93;;;;;;;12.14;79.45;100859.88;4188245;28;20236;-70
2023/08/12 03:22:47;;;;;;;12.07;5.27;;;;;;;12.16;79.25;100859.72;4182229;28;21850;-71
2023/08/12 03:25:15;;;;;;;17.57;5.93;;;;;;;12.15;79.33;100869.72;4219654;28;20232;-70
2023/08/12 03:27:41;;;;;;;12.43;6.53;;;;;;;12.12;79.69;100872.72;4228014;28;20341;-71
2023/08/12 03:30:09;;;;;;;11.87;5.60;;;;;;;12.17;79.39;100875.00;4194502;28;22937;-70
2023/08/12 03:32:36;;;;;;;13.80;6.33;;;;;;;12.18;79.15;100869.41;4202555;28;22359;-70
2023/08/12 03:35:03;;;;;;;20.73;5.70;;;;;;;12.14;79.02;100876.16;4211192;28;20403;-70
2023/08/12 03:37:30;;;;;;;15.00;5.40;;;;;;;12.09;78.35;100875.72;4197871;28;25508;-70
2023/08/12 03:39:57;;;;;;;14.10;5.73;;;;;;;12.18;78.04;100876.72;4203290;28;20244;-69
2023/08/12 03:42:24;;;;;;;15.00;5.77;;;;;;;12.24;77.68;100881.53;4209280;28;20236;-71
2023/08/12 03:44:50;;;;;;;8.63;4.77;;;;;;;12.28;74.67;100872.09;4213409;28;20232;-70
2023/08/12 03:47:21;;;;;;;11.33;4.50;;;;;;;12.37;73.09;100881.22;4206409;28;20316;-70
2023/08/12 03:49:48;;;;;;;10.67;4.60;;;;;;;12.45;73.98;100875.91;4211603;28;21862;-69
2023/08/12 03:52:15;;;;;;;11.27;4.47;;;;;;;12.50;74.11;100880.91;4197763;28;20267;-67
2023/08/12 03:54:42;;;;;;;10.83;4.37;;;;;;;12.57;73.78;100882.00;4200317;28;20249;-69
2023/08/12 03:57:08;;;;;;;10.23;4.80;;;;;;;12.71;73.42;100877.94;4200464;28;21601;-69
2023/08/12 03:59:35;;;;;;;11.97;4.40;;;;;;;12.79;73.76;100882.63;4190487;28;20561;-65
2023/08/12 04:02:03;;;;;;;12.00;5.37;;;;;;;12.78;74.02;100879.03;4207430;28;20232;-70
2023/08/12 04:04:30;;;;;;;10.10;4.87;;;;;;;12.85;73.92;100879.28;4202904;28;20245;-70
2023/08/12 04:06:57;;;;;;;9.17;4.47;;;;;;;12.94;73.80;100875.69;4204105;28;20249;-70
2023/08/12 04:09:23;;;;;;;8.37;5.03;;;;;;;13.06;73.41;100878.16;4196924;28;22203;-70
2023/08/12 04:11:51;;;;;;;11.27;5.00;;;;;;;13.08;73.90;100879.72;4199386;28;25437;-69
2023/08/12 04:14:17;;;;;;;12.53;5.03;;;;;;;13.09;73.71;100878.72;4203265;28;20251;-67
2023/08/12 04:16:44;;;;;;;15.23;4.90;;;;;;;13.17;73.64;100880.69;4203248;28;20232;-68
2023/08/12 04:19:10;;;;;;;14.33;5.23;;;;;;;13.22;73.36;100872.91;4187139;28;20316;-68
2023/08/12 04:21:37;;;;;;;11.03;4.63;;;;;;;13.33;73.13;100869.09;4221553;28;20244;-74
2023/08/12 04:24:04;;;;;;;13.93;5.57;;;;;;;13.34;72.99;100862.66;4200823;28;20249;-69
2023/08/12 04:26:30;;;;;;;15.13;5.60;;;;;;;13.42;71.64;100870.06;4194140;28;21057;-71
2023/08/12 04:28:57;;;;;;;12.57;5.87;;;;;;;13.48;71.25;100874.91;4201205;28;26560;-68
2023/08/12 04:31:23;;;;;;;10.93;5.33;;;;;;;13.56;70.54;100880.38;4188650;28;26108;-68
2023/08/12 04:33:52;;;;;;;11.63;5.27;;;;;;;13.67;70.12;100881.16;4192167;28;20293;-69
2023/08/12 04:36:19;;;;;;;11.63;5.23;;;;;;;13.78;70.23;100875.50;4197736;28;21069;-68
2023/08/12 04:38:46;;;;;;;11.13;4.80;;;;;;;13.93;69.82;100879.34;4200158;28;20402;-67
2023/08/12 04:41:13;;;;;;;13.37;5.20;;;;;;;14.05;69.46;100873.63;4198684;28;20236;-70
2023/08/12 04:43:40;;;;;;;14.43;4.70;;;;;;;14.14;67.21;100874.53;4192711;28;20233;-67
2023/08/12 04:46:06;;;;;;;16.30;4.83;;;;;;;14.28;66.32;100879.41;4198555;28;20240;-68
2023/08/12 04:48:33;;;;;;;9.67;4.50;;;;;;;14.38;67.08;100873.84;4193894;28;20304;-69
2023/08/12 04:51:02;;;;;;;9.10;4.40;;;;;;;14.53;66.68;100869.50;4202902;28;20233;-70
2023/08/12 04:53:29;;;;;;;10.57;4.40;;;;;;;14.73;66.54;100878.28;4196104;28;20324;-68
2023/08/12 04:55:56;;;;;;;11.10;4.30;;;;;;;14.88;66.26;100875.81;4206557;28;21390;-69
2023/08/12 04:58:23;;;;;;;13.60;5.60;;;;;;;15.01;65.41;100874.47;4196653;28;20576;-70
2023/08/12 05:00:52;;;;;;;11.00;5.90;;;;;;;15.22;64.74;100868.56;4205842;28;20236;-69
2023/08/12 05:03:18;;;;;;;14.90;5.50;;;;;;;15.32;64.73;100863.84;4201356;28;20734;-72
2023/08/12 05:05:50;;;;;;;22.77;6.53;;;;;;;15.47;64.35;100869.47;4203740;28;21281;-69
2023/08/12 05:08:17;;;;;;;10.90;5.53;;;;;;;15.66;63.82;100856.53;4190681;28;20237;-71
2023/08/12 05:10:47;;;;;;;14.53;5.37;;;;;;;15.78;63.72;100863.31;4194321;28;20229;-71
2023/08/12 05:13:14;;;;;;;14.57;5.50;;;;;;;15.90;63.59;100860.31;4204603;28;20351;-71
2023/08/12 05:15:41;;;;;;;11.60;4.80;;;;;;;15.99;63.52;100859.25;4199562;28;21580;-70
2023/08/12 05:18:07;;;;;;;11.67;5.00;;;;;;;16.10;61.25;100866.22;4185156;28;20238;-68
2023/08/12 05:20:35;;;;;;;13.77;4.57;;;;;;;16.27;60.03;100864.34;4206612;28;20310;-68
2023/08/12 05:23:02;;;;;;;12.97;4.87;;;;;;;16.37;60.36;100861.41;4197155;28;25907;-70
2023/08/12 05:25:28;;;;;;;14.27;4.60;;;;;;;16.48;60.71;100864.59;4189427;28;21510;-71
2023/08/12 05:27:55;;;;;;;9.07;3.60;;;;;;;16.68;60.40;100857.88;4195824;28;20241;-69
2023/08/12 05:30:21;;;;;;;9.20;3.67;;;;;;;16.79;59.75;100858.34;4181605;28;21878;-67
2023/08/12 05:32:48;;;;;;;11.07;4.50;;;;;;;16.92;58.99;100851.44;4188378;28;20769;-70
2023/08/12 05:35:15;;;;;;;13.17;4.57;;;;;;;17.02;59.07;100848.50;4192490;28;20244;-69
2023/08/12 05:37:41;;;;;;;8.50;3.77;;;;;;;17.20;58.71;100850.94;4192352;28;20309;-69
2023/08/12 05:40:09;;;;;;;11.47;3.67;;;;;;;17.31;58.37;100853.28;4193673;28;20351;-69
2023/08/12 05:42:36;;;;;;;12.00;4.13;;;;;;;17.31;58.47;100855.16;4211504;28;22999;-69
2023/08/12 05:45:04;;;;;;;10.60;3.60;;;;;;;17.46;58.08;100863.44;4188731;28;20483;-68
2023/08/12 05:47:34;;;;;;;8.57;3.73;;;;;;;17.63;58.18;100853.19;4195771;28;27165;-71
2023/08/12 05:50:01;;;;;;;11.97;3.70;;;;;;;17.85;57.86;100854.22;4189554;28;22830;-68
2023/08/12 05:52:28;;;;;;;13.03;4.43;;;;;;;18.04;57.44;100848.22;4205329;28;20237;-68
2023/08/12 05:54:54;;;;;;;9.00;3.60;;;;;;;18.29;56.58;100847.97;4213989;28;21402;-69
2023/08/12 05:57:21;;;;;;;9.87;4.07;;;;;;;18.45;56.08;100851.59;4196774;28;20237;-71
2023/08/12 05:59:47;;;;;;;8.93;3.80;;;;;;;18.65;54.93;100851.84;4200082;28;21675;-69
2023/08/12 06:02:14;;;;;;;17.77;4.30;;;;;;;18.96;54.11;100850.78;4194347;28;20237;-73
2023/08/12 06:04:41;;;;;;;9.43;3.50;;;;;;;19.38;53.63;100851.88;4192963;28;26139;-68
2023/08/12 06:07:07;;;;;;;8.90;3.57;;;;;;;19.94;51.55;100855.78;4194473;28;20242;-69
2023/08/12 06:09:35;;;;;;;14.80;4.07;;;;;;;21.16;48.28;100847.16;4193710;28;20248;-65
2023/08/12 06:12:02;;;;;;;9.90;3.70;;;;;;;22.61;44.89;100845.69;4193951;28;20288;-68
2023/08/12 06:14:29;;;;;;;9.60;3.67;;;;;;;24.01;41.92;100852.31;4208769;28;20299;-66
2023/08/12 06:16:55;;;;;;;7.67;3.00;;;;;;;25.13;39.81;100838.50;4200283;28;20236;-69
2023/08/12 06:19:24;;;;;;;12.10;3.50;;;;;;;26.35;37.62;100846.56;4191713;28;20618;-71
2023/08/12 06:21:51;;;;;;;10.27;3.43;;;;;;;27.39;35.07;100853.16;4200655;28;20665;-72
2023/08/12 06:24:18;;;;;;;9.98;3.40;;;;;;;28.07;34.26;100850.47;4202554;28;20268;-71
2023/08/12 06:26:44;;;;;;;9.32;3.58;;;;;;;28.86;32.98;100844.88;4200822;28;20328;-71
2023/08/12 06:29:11;;;;;;;9.00;3.53;;;;;;;29.32;31.63;100845.44;4194835;28;21111;-68
2023/08/12 06:31:38;;;;;;;10.82;3.22;;;;;;;30.15;30.27;100846.13;4202835;28;20403;-70
2023/08/12 06:34:04;;;;;;;10.13;3.30;;;;;;;29.77;30.63;100850.84;4207407;28;20239;-70
2023/08/12 06:36:31;;;;;;;9.20;3.17;;;;;;;30.29;30.04;100849.31;4202383;28;20416;-70
2023/08/12 06:38:58;;;;;;;7.50;3.38;;;;;;;30.39;29.87;100854.09;4191940;28;20392;-70
2023/08/12 06:41:24;;;;;;;7.13;3.25;;;;;;;31.97;27.14;100862.41;4210152;28;20293;-72
2023/08/12 06:43:51;;;;;;;9.50;2.90;;;;;;;32.07;27.55;100851.16;4205831;28;20554;-69
2023/08/12 06:46:18;;;;;;;10.82;3.35;;;;;;;32.41;26.74;100853.38;4168394;28;20236;-67
2023/08/12 06:48:44;;;;;;;7.63;3.15;;;;;;;32.25;27.41;100852.59;4195329;28;20604;-69
2023/08/12 06:51:11;;;;;;;10.95;2.95;;;;;;;32.95;25.40;100843.38;4204005;28;21730;-70
2023/08/12 06:53:39;;;;;;;7.40;3.00;;;;;;;32.59;26.05;100856.69;4202239;28;20245;-72
2023/08/12 06:56:06;;;;;;;7.80;4.00;;;;;;;33.98;24.96;100844.63;4185099;28;20235;-69
2023/08/12 06:58:32;;;;;;;11.13;3.33;;;;;;;33.29;25.99;100844.56;4199916;28;22954;-68
2023/08/12 07:01:00;;;;;;;10.73;3.15;;;;;;;31.73;26.77;100851.78;4202234;28;21691;-70
2023/08/12 07:03:27;;;;;;;10.55;3.13;;;;;;;31.39;26.48;100846.66;4195137;28;20237;-71
2023/08/12 07:05:54;;;;;;;8.02;2.65;;;;;;;29.80;28.71;100847.50;4203563;28;21250;-71
2023/08/12 07:08:21;;;;;;;8.18;2.88;;;;;;;31.32;27.72;100852.56;4206904;28;21307;-70
2023/08/12 07:10:47;;;;;;;6.43;2.13;;;;;;;33.07;23.99;100847.81;4212533;28;20643;-71
2023/08/12 07:13:14;;;;;;;6.40;2.50;;;;;;;33.27;24.58;100844.03;4195541;28;20238;-69
2023/08/12 07:15:40;;;;;;;9.98;2.63;;;;;;;32.88;24.77;100847.63;4200736;28;20236;-73
2023/08/12 07:18:07;;;;;;;15.13;3.67;;;;;;;31.29;27.65;100853.94;4203457;28;20355;-69
2023/08/12 07:20:35;;;;;;;9.05;2.30;;;;;;;32.81;25.62;100845.97;4207851;28;21374;-71
2023/08/12 07:23:02;;;;;;;8.82;2.65;;;;;;;33.91;23.48;100844.13;4199980;28;21224;-72
2023/08/12 07:25:28;;;;;;;7.35;2.63;;;;;;;32.23;24.39;100843.63;4190817;28;20242;-70
2023/08/12 07:27:55;;;;;;;5.68;2.00;;;;;;;31.99;25.13;100847.00;4205706;28;20235;-70
2023/08/12 07:30:22;;;;;;;5.60;2.20;;;;;;;32.26;24.72;100845.84;4195126;28;20416;-69
2023/08/12 07:32:48;;;;;;;7.90;2.50;;;;;;;32.16;23.85;100843.06;4197128;28;20242;-71
2023/08/12 07:35:16;;;;;;;7.97;2.47;;;;;;;30.73;25.62;100837.81;4177239;28;20411;-70
2023/08/12 07:37:42;;;;;;;4.78;2.20;;;;;;;31.89;25.19;100842.25;4207311;28;20256;-68
2023/08/12 07:40:09;;;;;;;9.60;2.20;;;;;;;31.69;26.49;100840.28;4201631;28;20308;-70
2023/08/12 07:42:36;;;;;;;10.98;2.63;;;;;;;31.66;25.64;100840.84;4189604;28;20624;-70
2023/08/12 07:45:03;;;;;;;8.75;2.20;;;;;;;32.18;24.96;100833.25;4198099;28;20608;-72
2023/08/12 07:47:30;;;;;;;7.93;2.20;;;;;;;34.27;22.62;100832.53;4182263;28;22158;-73
2023/08/12 07:49:56;;;;;;;8.25;2.22;;;;;;;35.77;20.03;100827.66;4226033;28;21541;-72
2023/08/12 07:52:23;;;;;;;5.28;1.92;;;;;;;35.21;20.75;100814.19;4198001;28;20671;-67
2023/08/12 07:54:49;;;;;;;12.35;1.92;;;;;;;34.38;21.62;100822.88;4205789;28;21089;-70
2023/08/12 07:57:16;;;;;;;9.35;1.80;;;;;;;32.79;23.94;100824.94;4186714;28;25992;-72
2023/08/12 07:59:43;;;;;;;8.50;2.42;;;;;;;30.88;25.32;100823.03;4204467;28;20377;-67
2023/08/12 08:02:10;;;;;;;7.25;1.98;;;;;;;29.25;27.68;100816.88;4201993;28;20654;-69
2023/08/12 08:04:37;;;;;;;6.78;2.17;;;;;;;29.00;28.43;100817.47;4221751;28;20303;-68
2023/08/12 08:07:04;;;;;;;5.38;2.20;;;;;;;28.91;28.77;100811.50;4206057;28;21757;-69
2023/08/12 08:09:30;;;;;;;8.50;2.20;;;;;;;29.55;27.41;100815.53;4214926;28;23043;-71
2023/08/12 08:11:57;;;;;;;5.43;1.90;;;;;;;29.60;27.54;100815.56;4213853;28;20250;-73
2023/08/12 08:14:24;;;;;;;11.88;2.20;;;;;;;29.25;27.61;100811.31;4204629;28;21095;-71
2023/08/12 08:16:53;;;;;;;9.13;1.88;;;;;;;29.71;27.00;100808.09;4241924;28;20331;-73
2023/08/12 08:19:21;;;;;;;10.38;1.92;;;;;;;29.67;26.92;100806.97;4235261;28;20236;-69
2023/08/12 08:21:47;;;;;;;9.38;2.33;;;;;;;28.73;27.78;100810.75;4216826;28;20303;-71
2023/08/12 08:24:14;;;;;;;6.53;1.83;;;;;;;29.16;27.18;100802.56;4236328;28;21168;-69
2023/08/12 08:26:40;;;;;;;10.85;2.17;;;;;;;28.72;27.99;100799.84;4225305;28;25116;-70
2023/08/12 08:29:07;;;;;;;6.50;1.90;;;;;;;28.75;28.21;100799.34;4204184;28;20385;-73
2023/08/12 08:31:36;;;;;;;9.63;2.42;;;;;;;28.19;28.96;100799.44;4213696;28;20247;-66
2023/08/12 08:34:02;;;;;;;7.85;1.98;;;;;;;28.34;28.63;100793.22;4193425;28;20334;-70
2023/08/12 08:36:29;;;;;;;10.55;2.20;;;;;;;28.36;28.50;100793.81;4245728;28;25838;-68
2023/08/12 08:38:56;;;;;;;4.45;1.92;;;;;;;27.56;29.27;100796.75;4208541;28;22919;-68
2023/08/12 08:41:23;;;;;;;5.20;1.90;;;;;;;26.22;31.10;100789.38;4227570;28;20244;-69
2023/08/12 08:43:52;;;;;;;11.55;2.15;;;;;;;26.37;31.48;100797.22;4225434;28;26703;-73
2023/08/12 08:46:20;;;;;;;6.27;1.70;;;;;;;27.46;29.48;100789.91;4199372;28;20237;-69
2023/08/12 08:48:47;;;;;;;10.98;1.80;;;;;;;27.22;30.06;100794.75;4205567;28;21415;-69
2023/08/12 08:51:14;;;;;;;11.35;1.95;;;;;;;27.39;29.48;100800.31;4189657;28;20224;-69
2023/08/12 08:53:41;;;;;;;8.13;2.10;;;;;;;26.65;30.21;100790.00;4197162;28;21119;-73
2023/08/12 08:56:11;;;;;;;10.50;1.92;;;;;;;26.64;30.33;100791.97;4204078;28;21815;-67
2023/08/12 08:58:41;;;;;;;6.97;2.08;;;;;;;26.84;30.35;100799.03;4207976;28;22410;-69
2023/08/12 09:01:08;;;;;;;4.97;2.00;;;;;;;26.84;30.09;100799.91;4193990;28;20658;-68
2023/08/12 09:03:39;;;;;;;7.35;1.80;;;;;;;26.29;31.10;100792.03;4191898;28;20268;-66
2023/08/12 09:06:05;;;;;;;5.30;2.05;;;;;;;26.12;31.97;100787.22;4192806;28;20296;-69
2023/08/12 09:08:32;;;;;;;8.95;1.90;;;;;;;25.89;32.56;100791.66;4206684;28;20248;-70
2023/08/12 09:11:02;;;;;;;8.52;1.90;;;;;;;25.24;32.55;100776.75;4192891;28;20244;-68
2023/08/12 09:13:29;;;;;;;8.25;1.73;;;;;;;25.54;32.88;100778.63;4190510;28;20239;-68
2023/08/12 09:15:56;;;;;;;6.57;1.80;;;;;;;26.18;32.16;100786.25;4195281;28;20240;-69
2023/08/12 09:18:24;;;;;;;9.87;1.80;;;;;;;26.26;32.35;100780.34;4203724;28;20238;-70
2023/08/12 09:20:51;;;;;;;3.03;1.60;;;;;;;25.51;33.26;100778.28;4191147;28;20242;-69
2023/08/12 09:23:18;;;;;;;6.93;1.77;;;;;;;25.21;33.46;100770.84;4199457;28;20232;-70
2023/08/12 09:25:45;;;;;;;3.35;1.58;;;;;;;26.01;32.56;100768.66;4201447;28;20239;-71
2023/08/12 09:28:12;;;;;;;5.55;1.77;;;;;;;26.17;33.19;100770.69;4213356;28;20229;-70
2023/08/12 09:30:39;;;;;;;7.25;2.13;;;;;;;26.25;31.36;100770.31;4202273;28;21183;-72
2023/08/12 09:33:07;;;;;;;5.90;1.70;;;;;;;26.61;30.78;100767.47;4196429;28;20237;-69
2023/08/12 09:35:36;;;;;;;8.60;1.70;;;;;;;25.62;33.67;100764.44;4200826;28;21745;-70
2023/08/12 09:38:15;;;;;;;10.80;1.80;;;;;;;25.53;34.37;100762.25;4196831;28;21364;-71
2023/08/12 09:40:42;;;;;;;5.68;1.70;;;;;;;25.19;34.80;100759.13;4198510;28;20237;-69
2023/08/12 09:43:11;;;;;;;6.87;1.60;;;;;;;24.75;34.72;100753.81;4185739;28;22825;-69
2023/08/12 09:45:38;;;;;;;3.45;1.85;;;;;;;25.08;34.61;100761.63;4222259;28;20635;-69
2023/08/12 09:48:07;;;;;;;4.97;1.63;;;;;;;25.53;32.67;100759.47;4227930;28;25537;-68
2023/08/12 09:50:36;;;;;;;5.40;1.83;;;;;;;26.02;33.19;100754.53;4198080;28;20230;-67
2023/08/12 09:53:03;;;;;;;7.40;1.90;;;;;;;25.36;34.00;100753.75;4185496;28;20244;-68
2023/08/12 09:55:31;;;;;;;4.10;1.93;;;;;;;25.72;33.33;100757.44;4191350;28;21620;-72
2023/08/12 09:57:59;;;;;;;11.27;2.20;;;;;;;25.10;34.67;100748.41;4206574;28;20651;-67
2023/08/12 10:00:25;;;;;;;6.57;2.13;;;;;;;24.84;36.98;100742.19;4191621;28;20516;-71
2023/08/12 10:02:52;;;;;;;6.67;1.83;;;;;;;24.80;34.78;100742.88;4208548;28;20717;-70
2023/08/12 10:05:22;;;;;;;6.77;2.00;;;;;;;25.52;33.52;100752.25;4217103;28;20342;-71
2023/08/12 10:07:49;;;;;;;7.68;1.95;;;;;;;25.86;32.58;100733.06;4201317;28;20658;-71
2023/08/12 10:10:16;;;;;;;14.17;2.20;;;;;;;25.83;32.80;100733.56;4208342;28;20301;-68
2023/08/12 10:12:43;;;;;;;8.48;1.83;;;;;;;25.73;34.24;100729.47;4214934;28;21380;-70
2023/08/12 10:15:11;;;;;;;5.50;1.67;;;;;;;25.28;35.01;100741.94;4219704;28;24230;-69
2023/08/12 10:17:38;;;;;;;6.97;2.08;;;;;;;25.39;35.52;100733.91;4205977;28;20258;-70
2023/08/12 10:20:13;;;;;;;8.80;1.95;;;;;;;25.65;35.59;100738.16;4197934;28;20311;-72
2023/08/12 10:22:43;;;;;;;7.30;2.20;;;;;;;25.47;35.06;100737.16;4198151;28;20228;-69
2023/08/12 10:25:13;;;;;;;6.63;1.95;;;;;;;24.50;35.55;100727.91;4219639;28;21966;-71
2023/08/12 10:27:40;;;;;;;14.48;2.53;;;;;;;25.07;35.19;100732.28;4232737;28;20911;-67
2023/08/12 10:30:10;;;;;;;9.70;1.90;;;;;;;25.46;35.49;100718.84;4218144;28;20236;-71
2023/08/12 10:32:37;;;;;;;7.57;2.50;;;;;;;25.91;35.44;100719.31;4193095;28;20604;-70
2023/08/12 10:35:05;;;;;;;6.95;1.92;;;;;;;26.06;34.29;100716.03;4213146;28;20275;-71
2023/08/12 10:37:35;;;;;;;5.60;1.77;;;;;;;26.05;33.15;100717.13;4202429;28;20233;-70
2023/08/12 10:40:10;;;;;;;10.57;2.07;;;;;;;26.12;34.10;100709.53;4207150;28;21713;-68
2023/08/12 10:42:43;;;;;;;7.55;1.83;;;;;;;26.24;32.45;100717.84;4219013;28;21728;-73
2023/08/12 10:45:11;;;;;;;3.93;1.50;;;;;;;25.81;34.60;100710.78;4216935;28;20234;-70
2023/08/12 10:47:44;;;;;;;7.18;2.00;;;;;;;26.00;35.10;100709.53;4202249;28;25696;-69
2023/08/12 10:50:21;;;;;;;5.57;2.10;;;;;;;25.94;33.23;100703.03;4194000;28;21110;-70
2023/08/12 10:52:51;;;;;;;6.22;2.00;;;;;;;25.94;33.43;100700.25;4187586;28;22864;-69
2023/08/12 10:55:22;;;;;;;5.32;1.70;;;;;;;25.97;32.94;100695.31;4209079;28;20249;-69
2023/08/12 10:57:50;;;;;;;5.97;2.00;;;;;;;25.92;34.02;100701.59;4196471;28;20240;-70
2023/08/12 11:00:26;;;;;;;7.03;2.00;;;;;;;25.72;33.98;100696.44;4189552;28;20244;-67
2023/08/12 11:02:55;;;;;;;7.97;1.80;;;;;;;25.82;33.02;100688.34;4215377;28;20426;-68
2023/08/12 11:05:23;;;;;;;12.75;2.45;;;;;;;25.89;33.93;100691.00;4228555;28;21785;-67
2023/08/12 11:08:05;;;;;;;4.97;1.70;;;;;;;26.18;32.66;100688.31;4200305;28;20233;-69
2023/08/12 11:10:38;;;;;;;6.43;2.00;;;;;;;26.01;32.73;100682.66;4197674;28;21604;-68
2023/08/12 11:13:04;;;;;;;8.65;1.80;;;;;;;25.41;34.41;100687.41;4214574;28;20596;-68
2023/08/12 11:15:36;;;;;;;7.03;1.60;;;;;;;25.86;34.35;100680.38;4205892;28;20632;-69
2023/08/12 11:18:12;;;;;;;4.90;1.53;;;;;;;26.31;34.01;100676.09;4183389;28;20239;-69
2023/08/12 11:20:39;;;;;;;4.95;1.75;;;;;;;26.52;32.89;100682.88;4181142;28;20247;-68
2023/08/12 11:23:07;;;;;;;7.55;1.73;;;;;;;26.54;33.94;100677.91;4221724;28;20320;-69